createdAt,value
2019-03-10T00:01:44.755Z,44.03
2019-03-10T00:04:14.959Z,44.18
2019-03-10T00:06:45.506Z,43.35
2019-03-10T00:09:16.849Z,50.23
2019-03-10T00:11:47.170Z,50.40
2019-03-10T00:14:17.661Z,59.55
2019-03-10T00:16:50.380Z,54.38
2019-03-10T00:19:21.012Z,50.65
2019-03-10T00:21:51.436Z,52.67
2019-03-10T00:24:22.372Z,50.45
2019-03-10T00:26:53.051Z,51.37
2019-03-10T00:29:26.183Z,51.77
2019-03-10T00:31:57.540Z,52.15
2019-03-10T00:34:27.950Z,52.13
2019-03-10T00:37:00.030Z,52.53
2019-03-10T00:39:42.635Z,56.48
2019-03-10T00:42:26.136Z,57.40
2019-03-10T00:45:33.189Z,59.35
2019-03-10T00:48:30.917Z,59.75
2019-03-10T00:51:18.856Z,57.25
2019-03-10T00:53:49.792Z,55.17
2019-03-10T00:56:20.116Z,57.03
2019-03-10T00:58:50.850Z,56.58
2019-03-10T01:01:21.480Z,56.95
2019-03-10T01:03:52.118Z,58.00
2019-03-10T01:06:23.457Z,54.70
2019-03-10T01:08:54.159Z,56.73
2019-03-10T01:11:24.919Z,56.10
2019-03-10T01:13:55.652Z,56.55
2019-03-10T01:16:26.278Z,57.78
2019-03-10T01:18:56.911Z,61.42
2019-03-10T01:21:28.191Z,56.30
2019-03-10T01:23:59.401Z,54.33
2019-03-10T01:26:30.029Z,57.90
2019-03-10T01:29:00.767Z,57.48
2019-03-10T01:31:57.609Z,57.23
2019-03-10T01:34:34.076Z,56.30
2019-03-10T01:37:08.482Z,55.10
2019-03-10T01:39:39.036Z,51.95
2019-03-10T01:42:09.852Z,52.95
2019-03-10T01:44:40.412Z,54.83
2019-03-10T01:47:11.582Z,52.23
2019-03-10T01:49:42.367Z,53.28
2019-03-10T01:52:13.090Z,52.13
2019-03-10T01:54:43.680Z,53.73
2019-03-10T01:57:14.249Z,53.30
2019-03-10T01:59:45.513Z,49.08
2019-03-10T02:02:24.912Z,50.23
2019-03-10T02:04:48.631Z,49.63
2019-03-10T02:07:19.433Z,49.35
2019-03-10T02:09:50.160Z,49.65
2019-03-10T02:12:21.646Z,48.30
2019-03-10T02:14:53.996Z,48.68
2019-03-10T02:17:24.410Z,50.05
2019-03-10T02:19:56.782Z,48.87
2019-03-10T02:22:27.407Z,51.33
2019-03-10T02:24:57.981Z,51.88
2019-03-10T02:27:29.487Z,49.60
2019-03-10T02:29:59.913Z,50.90
2019-03-10T02:32:31.364Z,50.00
2019-03-10T02:35:03.951Z,48.58
2019-03-10T02:37:35.005Z,49.23
2019-03-10T02:40:06.808Z,50.75
2019-03-10T02:42:37.060Z,49.15
2019-03-10T02:45:09.795Z,50.33
2019-03-10T02:47:40.986Z,49.45
2019-03-10T02:50:11.817Z,49.53
2019-03-10T02:52:42.421Z,47.67
2019-03-10T02:55:13.282Z,49.83
2019-03-10T02:57:44.016Z,50.55
2019-03-10T03:00:14.641Z,49.55
2019-03-10T03:02:45.493Z,52.23
2019-03-10T03:05:16.111Z,52.78
2019-03-10T03:07:48.275Z,54.18
2019-03-10T03:10:21.263Z,55.05
2019-03-10T03:12:52.197Z,54.90
2019-03-10T03:15:23.491Z,57.40
2019-03-10T03:17:53.866Z,59.48
2019-03-10T03:20:24.600Z,61.53
2019-03-10T03:22:56.047Z,63.00
2019-03-10T03:25:26.340Z,65.25
2019-03-10T03:27:56.900Z,65.72
2019-03-10T03:30:28.445Z,62.55
2019-03-10T03:32:58.861Z,66.00
2019-03-10T03:35:57.123Z,69.40
2019-03-10T03:38:36.729Z,69.87
2019-03-10T03:41:23.267Z,67.60
2019-03-10T03:43:55.467Z,65.85
2019-03-10T03:46:26.017Z,65.47
2019-03-10T03:48:57.336Z,63.55
2019-03-10T03:51:28.379Z,65.92
2019-03-10T03:53:58.806Z,63.23
2019-03-10T03:56:29.638Z,61.75
2019-03-10T03:59:00.613Z,62.45
2019-03-10T04:01:33.899Z,63.35
2019-03-10T04:04:06.546Z,59.80
2019-03-10T04:06:37.145Z,60.30
2019-03-10T04:09:10.266Z,62.10
2019-03-10T04:11:41.730Z,60.38
2019-03-10T04:14:12.005Z,59.35
2019-03-10T04:16:42.526Z,60.67
2019-03-10T04:19:13.396Z,57.95
2019-03-10T04:21:44.128Z,57.70
2019-03-10T04:24:14.959Z,58.15
2019-03-10T04:26:45.591Z,58.13
2019-03-10T04:29:16.840Z,56.37
2019-03-10T04:31:49.322Z,56.75
2019-03-10T04:34:19.969Z,56.45
2019-03-10T04:36:50.467Z,55.95
2019-03-10T04:39:21.097Z,56.68
2019-03-10T04:41:51.840Z,56.00
2019-03-10T04:44:22.565Z,53.78
2019-03-10T04:46:54.117Z,57.05
2019-03-10T04:49:24.441Z,55.20
2019-03-10T04:51:55.376Z,57.05
2019-03-10T04:54:31.318Z,53.80
2019-03-10T04:57:03.706Z,54.30
2019-03-10T04:59:35.233Z,56.92
2019-03-10T05:02:05.883Z,55.88
2019-03-10T05:04:38.943Z,56.60
2019-03-10T05:07:09.502Z,57.70
2019-03-10T05:09:40.442Z,56.05
2019-03-10T05:12:11.207Z,54.30
2019-03-10T05:14:43.027Z,55.20
2019-03-10T05:17:14.270Z,53.00
2019-03-10T05:19:44.526Z,52.30
2019-03-10T05:22:15.528Z,51.92
2019-03-10T05:24:47.696Z,50.55
2019-03-10T05:27:18.936Z,53.58
2019-03-10T05:29:49.362Z,49.05
2019-03-10T05:32:20.098Z,47.43
2019-03-10T05:34:52.674Z,48.45
2019-03-10T05:37:23.404Z,48.83
2019-03-10T05:39:55.716Z,46.55
2019-03-10T05:42:27.431Z,45.05
2019-03-10T05:44:58.066Z,44.25
2019-03-10T05:47:28.767Z,44.03
2019-03-10T05:50:01.061Z,42.90
2019-03-10T05:52:32.051Z,45.80
2019-03-10T05:55:03.166Z,45.73
2019-03-10T05:57:33.785Z,45.55
2019-03-10T06:00:07.676Z,47.27
2019-03-10T06:02:38.307Z,48.05
2019-03-10T06:05:09.143Z,40.60
2019-03-10T06:07:40.734Z,49.85
2019-03-10T06:10:11.077Z,51.80
2019-03-10T06:12:41.862Z,50.95
2019-03-10T06:15:12.539Z,51.20
2019-03-10T06:17:43.319Z,52.43
2019-03-10T06:20:13.948Z,49.85
2019-03-10T06:22:45.206Z,45.20
2019-03-10T06:25:15.824Z,45.70
2019-03-10T06:27:48.088Z,43.95
2019-03-10T06:30:20.257Z,40.45
2019-03-10T06:32:52.524Z,39.73
2019-03-10T06:35:23.261Z,37.78
2019-03-10T06:37:55.942Z,38.75
2019-03-10T06:40:32.108Z,41.30
2019-03-10T06:42:59.183Z,38.88
2019-03-10T06:45:29.975Z,41.13
2019-03-10T06:48:01.115Z,41.18
2019-03-10T06:50:34.101Z,43.35
2019-03-10T06:53:04.361Z,39.60
2019-03-10T06:55:35.156Z,37.70
2019-03-10T06:58:05.760Z,38.33
2019-03-10T07:00:36.317Z,34.95
2019-03-10T07:03:06.948Z,34.78
2019-03-10T07:05:37.270Z,35.00
2019-03-10T07:08:08.413Z,35.85
2019-03-10T07:10:41.091Z,34.27
2019-03-10T07:13:11.923Z,34.92
2019-03-10T07:15:42.867Z,30.92
2019-03-10T07:18:13.617Z,32.17
2019-03-10T07:20:44.528Z,32.40
2019-03-10T07:23:16.900Z,32.85
2019-03-10T07:25:49.376Z,31.07
2019-03-10T07:28:33.558Z,30.97
2019-03-10T07:31:05.730Z,32.67
2019-03-10T07:33:54.647Z,31.95
2019-03-10T07:36:43.711Z,32.33
2019-03-10T07:39:17.529Z,33.83
2019-03-10T07:41:50.197Z,32.87
2019-03-10T07:44:22.292Z,31.27
2019-03-10T07:46:58.416Z,30.50
2019-03-10T07:49:30.992Z,32.03
2019-03-10T07:52:20.678Z,33.92
2019-03-10T07:55:11.577Z,33.13
2019-03-10T07:58:04.636Z,36.25
2019-03-10T08:00:36.896Z,32.45
2019-03-10T08:03:11.926Z,34.33
2019-03-10T08:06:02.729Z,33.67
2019-03-10T08:08:38.283Z,34.30
2019-03-10T08:11:19.553Z,33.55
2019-03-10T08:13:57.251Z,33.85
2019-03-10T08:16:29.316Z,34.25
2019-03-10T08:19:07.492Z,35.38
2019-03-10T08:21:58.118Z,36.15
2019-03-10T08:24:34.587Z,35.63
2019-03-10T08:27:09.556Z,35.00
2019-03-10T08:29:44.959Z,34.50
2019-03-10T08:32:34.744Z,36.08
2019-03-10T08:35:13.977Z,38.15
2019-03-10T08:37:55.356Z,34.98
2019-03-10T08:40:37.719Z,37.35
2019-03-10T08:43:19.349Z,37.78
2019-03-10T08:46:01.448Z,38.42
2019-03-10T08:48:37.822Z,37.65
2019-03-10T08:51:15.812Z,39.05
2019-03-10T08:53:51.053Z,39.85
2019-03-10T08:56:30.075Z,42.60
2019-03-10T08:59:14.431Z,39.60
2019-03-10T09:01:50.487Z,37.88
2019-03-10T09:04:25.006Z,36.50
2019-03-10T09:07:13.656Z,37.15
2019-03-10T09:09:52.112Z,36.85
2019-03-10T09:12:25.977Z,35.80
2019-03-10T09:15:05.491Z,35.08
2019-03-10T09:17:40.860Z,34.05
2019-03-10T09:20:22.141Z,34.67
2019-03-10T09:23:06.633Z,36.58
2019-03-10T09:28:13.384Z,35.70
2019-03-10T09:30:58.041Z,34.98
2019-03-10T09:33:42.363Z,34.03
2019-03-10T09:36:20.194Z,33.08
2019-03-10T09:39:09.051Z,31.60
2019-03-10T09:41:58.855Z,34.13
2019-03-10T09:44:34.026Z,33.20
2019-03-10T09:47:09.309Z,32.17
2019-03-10T09:49:58.167Z,30.70
2019-03-10T09:52:33.644Z,26.27
2019-03-10T09:55:19.388Z,26.80
2019-03-10T09:57:54.934Z,27.77
2019-03-10T10:00:27.291Z,23.92
2019-03-10T10:03:00.495Z,23.50
2019-03-10T10:05:45.463Z,22.45
2019-03-10T10:08:26.847Z,19.95
2019-03-10T10:11:02.693Z,21.23
2019-03-10T10:13:35.534Z,20.27
2019-03-10T10:16:13.954Z,20.13
2019-03-10T10:18:46.975Z,17.70
2019-03-10T10:21:18.750Z,17.60
2019-03-10T10:23:51.818Z,17.83
2019-03-10T10:26:35.738Z,16.57
2019-03-10T10:29:23.839Z,15.45
2019-03-10T10:31:56.273Z,14.58
2019-03-10T10:34:31.512Z,14.53
2019-03-10T10:37:13.002Z,13.48
2019-03-10T10:40:02.574Z,13.62
2019-03-10T10:42:46.828Z,14.00
2019-03-10T10:45:25.023Z,14.18
2019-03-10T10:47:58.941Z,14.07
2019-03-10T10:50:43.289Z,13.30
2019-03-10T10:53:27.865Z,12.15
2019-03-10T10:56:09.545Z,11.75
2019-03-10T10:58:51.013Z,9.48
2019-03-10T11:01:26.048Z,10.43
2019-03-10T11:03:58.931Z,11.50
2019-03-10T11:06:31.202Z,11.83
2019-03-10T11:09:15.553Z,12.23
2019-03-10T11:12:00.989Z,12.05
2019-03-10T11:14:42.310Z,11.45
2019-03-10T11:17:17.759Z,12.00
2019-03-10T11:20:08.143Z,10.98
2019-03-10T11:22:55.468Z,11.97
2019-03-10T11:25:27.836Z,11.10
2019-03-10T11:28:01.052Z,11.08
2019-03-10T11:30:33.202Z,10.72
2019-03-10T11:33:07.240Z,11.57
2019-03-10T11:35:42.239Z,12.23
2019-03-10T11:38:14.916Z,11.55
2019-03-10T11:40:47.237Z,11.65
2019-03-10T11:43:37.268Z,11.50
2019-03-10T11:46:26.248Z,11.78
2019-03-10T11:49:04.844Z,12.33
2019-03-10T11:51:42.646Z,11.43
2019-03-10T11:54:14.872Z,12.30
2019-03-10T11:56:50.455Z,11.08
2019-03-10T11:59:34.400Z,12.20
2019-03-10T12:04:42.703Z,12.00
2019-03-10T12:07:17.454Z,11.45
2019-03-10T12:09:48.184Z,11.38
2019-03-10T12:12:18.818Z,11.15
2019-03-10T12:14:49.562Z,11.90
2019-03-10T12:17:23.655Z,10.63
2019-03-10T12:19:54.846Z,10.30
2019-03-10T12:22:26.500Z,9.95
2019-03-10T12:24:56.703Z,11.63
2019-03-10T12:27:27.509Z,10.50
2019-03-10T12:30:00.800Z,9.20
2019-03-10T12:32:33.381Z,9.10
2019-03-10T12:35:05.833Z,8.95
2019-03-10T12:37:36.080Z,10.18
2019-03-10T12:40:10.179Z,10.13
2019-03-10T12:42:41.018Z,9.68
2019-03-10T12:45:12.896Z,8.15
2019-03-10T12:47:44.130Z,8.15
2019-03-10T12:50:14.855Z,7.87
2019-03-10T12:52:45.073Z,7.90
2019-03-10T12:55:15.602Z,7.62
2019-03-10T12:57:47.768Z,7.50
2019-03-10T13:00:18.498Z,7.90
2019-03-10T13:02:49.847Z,7.25
2019-03-10T13:05:21.194Z,7.10
2019-03-10T13:07:54.387Z,7.85
2019-03-10T13:10:25.641Z,8.20
2019-03-10T13:12:56.266Z,9.60
2019-03-10T13:15:28.326Z,12.45
2019-03-10T13:17:59.290Z,9.85
2019-03-10T13:20:31.111Z,10.90
2019-03-10T13:23:03.153Z,9.63
2019-03-10T13:25:33.711Z,9.20
2019-03-10T13:28:04.151Z,7.65
2019-03-10T13:30:35.482Z,8.05
2019-03-10T13:33:05.599Z,9.23
2019-03-10T13:35:36.130Z,9.98
2019-03-10T13:38:10.478Z,11.05
2019-03-10T13:40:41.154Z,12.63
2019-03-10T13:43:11.495Z,12.37
2019-03-10T13:45:42.130Z,11.12
2019-03-10T13:48:12.655Z,11.75
2019-03-10T13:50:43.519Z,13.30
2019-03-10T13:53:14.523Z,14.50
2019-03-10T13:55:45.673Z,15.28
2019-03-10T13:58:15.900Z,14.43
2019-03-10T14:00:46.376Z,13.60
2019-03-10T14:03:17.764Z,14.07
2019-03-10T14:05:49.121Z,15.80
2019-03-10T14:08:19.630Z,15.10
2019-03-10T14:10:51.588Z,13.98
2019-03-10T14:13:22.191Z,15.03
2019-03-10T14:15:52.774Z,13.75
2019-03-10T14:18:23.799Z,14.35
2019-03-10T14:20:54.838Z,14.50
2019-03-10T14:23:25.268Z,13.88
2019-03-10T14:25:57.742Z,12.05
2019-03-10T14:28:29.906Z,11.90
2019-03-10T14:31:00.558Z,13.78
2019-03-10T14:33:31.366Z,13.98
2019-03-10T14:36:02.205Z,13.62
2019-03-10T14:38:32.693Z,11.93
2019-03-10T14:41:05.485Z,10.25
2019-03-10T14:43:35.645Z,8.20
2019-03-10T14:46:06.159Z,6.40
2019-03-10T14:48:36.788Z,6.30
2019-03-10T14:51:08.856Z,7.10
2019-03-10T14:53:39.481Z,8.50
2019-03-10T14:56:10.419Z,14.03
2019-03-10T14:58:41.253Z,14.53
2019-03-10T15:01:12.602Z,13.32
2019-03-10T15:03:43.031Z,12.80
2019-03-10T15:06:14.249Z,14.30
2019-03-10T15:08:46.420Z,11.75
2019-03-10T15:11:16.973Z,10.08
2019-03-10T15:13:47.800Z,9.63
2019-03-10T15:16:19.861Z,8.23
2019-03-10T15:18:52.952Z,6.17
2019-03-10T15:21:23.577Z,8.13
2019-03-10T15:23:56.264Z,8.60
2019-03-10T15:26:28.439Z,9.20
2019-03-10T15:28:58.950Z,10.00
2019-03-10T15:31:29.653Z,9.98
2019-03-10T15:34:01.241Z,10.65
2019-03-10T15:36:32.151Z,10.90
2019-03-10T15:39:03.628Z,12.85
2019-03-10T15:41:33.846Z,20.50
2019-03-10T15:44:04.681Z,20.77
2019-03-10T15:46:35.328Z,17.92
2019-03-10T15:49:05.836Z,17.30
2019-03-10T15:51:38.112Z,11.20
2019-03-10T15:54:08.644Z,14.20
2019-03-10T15:56:39.370Z,10.25
2019-03-10T15:59:10.535Z,9.83
2019-03-10T16:01:40.935Z,8.88
2019-03-10T16:04:17.114Z,9.88
2019-03-10T16:06:47.211Z,8.40
2019-03-10T16:09:17.762Z,12.40
2019-03-10T16:11:49.390Z,14.65
2019-03-10T16:14:22.296Z,21.95
2019-03-10T16:16:52.497Z,33.98
2019-03-10T16:19:23.956Z,48.42
2019-03-10T16:21:55.470Z,53.08
2019-03-10T16:24:26.949Z,49.98
2019-03-10T16:26:57.676Z,54.90
2019-03-10T16:29:28.005Z,55.65
2019-03-10T16:32:00.301Z,48.70
2019-03-10T16:34:32.638Z,33.88
2019-03-10T16:37:02.861Z,29.82
2019-03-10T16:39:33.390Z,27.00
2019-03-10T16:42:04.020Z,29.52
2019-03-10T16:44:35.365Z,27.73
2019-03-10T16:47:07.535Z,19.65
2019-03-10T16:49:38.159Z,16.52
2019-03-10T16:52:09.307Z,15.05
2019-03-10T16:54:39.651Z,17.35
2019-03-10T16:57:10.354Z,18.48
2019-03-10T16:59:40.890Z,19.05
2019-03-10T17:02:11.518Z,27.82
2019-03-10T17:04:42.213Z,18.15
2019-03-10T17:07:13.584Z,15.98
2019-03-10T17:09:43.982Z,14.43
2019-03-10T17:12:14.558Z,14.95
2019-03-10T17:14:45.899Z,13.78
2019-03-10T17:17:17.239Z,14.98
2019-03-10T17:19:47.770Z,14.87
2019-03-10T17:22:18.307Z,16.40
2019-03-10T17:24:48.828Z,13.03
2019-03-10T17:27:21.501Z,9.65
2019-03-10T17:29:52.235Z,9.65
2019-03-10T17:32:25.630Z,7.78
2019-03-10T17:34:56.059Z,8.50
2019-03-10T17:37:27.304Z,12.37
2019-03-10T17:39:59.570Z,12.70
2019-03-10T17:42:30.100Z,11.12
2019-03-10T17:45:00.800Z,11.15
2019-03-10T17:47:32.289Z,7.10
2019-03-10T17:50:02.702Z,6.17
2019-03-10T17:52:33.187Z,7.17
2019-03-10T17:55:04.971Z,6.55
2019-03-10T17:57:35.092Z,5.42
2019-03-10T18:00:14.172Z,5.53
2019-03-10T18:02:45.139Z,5.80
2019-03-10T18:05:15.702Z,6.15
2019-03-10T18:07:48.480Z,5.95
2019-03-10T18:10:19.111Z,6.20
2019-03-10T18:12:49.567Z,4.10
2019-03-10T18:15:20.952Z,5.90
2019-03-10T18:17:51.408Z,7.17
2019-03-10T18:20:24.167Z,8.83
2019-03-10T18:22:55.669Z,7.45
2019-03-10T18:25:27.570Z,6.12
2019-03-10T18:27:58.129Z,5.67
2019-03-10T18:30:29.135Z,7.17
2019-03-10T18:32:59.622Z,6.12
2019-03-10T18:35:31.204Z,4.72
2019-03-10T18:38:01.774Z,4.97
2019-03-10T18:40:32.507Z,4.70
2019-03-10T18:43:03.031Z,4.42
2019-03-10T18:45:33.666Z,4.50
2019-03-10T18:48:04.195Z,5.92
2019-03-10T18:50:35.643Z,6.05
2019-03-10T18:53:05.968Z,6.05
2019-03-10T18:55:36.593Z,6.90
2019-03-10T18:58:08.255Z,5.37
2019-03-10T19:00:38.731Z,5.00
2019-03-10T19:03:09.917Z,5.53
2019-03-10T19:05:40.752Z,9.90
2019-03-10T19:08:11.180Z,9.68
2019-03-10T19:10:41.780Z,14.10
2019-03-10T19:13:14.589Z,14.85
2019-03-10T19:15:46.240Z,22.40
2019-03-10T19:18:17.797Z,26.95
2019-03-10T19:20:47.976Z,25.55
2019-03-10T19:23:18.463Z,27.62
2019-03-10T19:25:50.914Z,22.22
2019-03-10T19:28:21.095Z,25.10
2019-03-10T19:30:52.481Z,21.27
2019-03-10T19:33:22.906Z,11.65
2019-03-10T19:35:53.538Z,10.58
2019-03-10T19:38:24.172Z,11.03
2019-03-10T19:40:54.693Z,10.95
2019-03-10T19:43:25.324Z,11.83
2019-03-10T19:45:55.823Z,12.07
2019-03-10T19:48:26.894Z,12.82
2019-03-10T19:50:57.112Z,13.58
2019-03-10T19:53:27.451Z,14.25
2019-03-10T19:55:58.680Z,12.43
2019-03-10T19:58:29.001Z,12.15
2019-03-10T20:00:59.732Z,13.85
2019-03-10T20:03:31.769Z,11.88
2019-03-10T20:06:02.735Z,13.05
2019-03-10T20:08:33.272Z,13.10
2019-03-10T20:11:04.202Z,13.90
2019-03-10T20:13:35.148Z,15.68
2019-03-10T20:16:06.690Z,16.23
2019-03-10T20:18:37.319Z,14.78
2019-03-10T20:21:07.908Z,15.23
2019-03-10T20:23:38.478Z,10.72
2019-03-10T20:26:09.518Z,9.23
2019-03-10T20:28:41.483Z,8.13
2019-03-10T20:31:11.904Z,9.68
2019-03-10T20:33:42.431Z,13.80
2019-03-10T20:36:12.979Z,14.95
2019-03-10T20:38:43.689Z,24.00
2019-03-10T20:41:14.728Z,33.45
2019-03-10T20:43:44.851Z,32.15
2019-03-10T20:46:15.479Z,31.95
2019-03-10T20:48:46.009Z,27.60
2019-03-10T20:51:18.480Z,23.47
2019-03-10T20:53:48.679Z,22.00
2019-03-10T20:56:19.058Z,21.97
2019-03-10T20:58:50.475Z,25.35
2019-03-10T21:01:21.537Z,25.77
2019-03-10T21:03:53.032Z,22.95
2019-03-10T21:06:23.999Z,15.65
2019-03-10T21:08:54.424Z,11.35
2019-03-10T21:11:25.671Z,9.70
2019-03-10T21:13:56.298Z,9.68
2019-03-10T21:16:26.855Z,9.10
2019-03-10T21:18:57.258Z,9.40
2019-03-10T21:21:27.783Z,9.10
2019-03-10T21:23:59.741Z,8.58
2019-03-10T21:26:30.387Z,8.45
2019-03-10T21:29:03.484Z,7.22
2019-03-10T21:31:32.863Z,7.25
2019-03-10T21:34:05.447Z,6.83
2019-03-10T21:36:37.473Z,6.22
2019-03-10T21:39:08.535Z,6.00
2019-03-10T21:41:39.166Z,6.00
2019-03-10T21:44:10.106Z,5.83
2019-03-10T21:46:40.532Z,5.42
2019-03-10T21:49:13.622Z,5.05
2019-03-10T21:51:44.770Z,5.30
2019-03-10T21:54:16.094Z,5.53
2019-03-10T21:56:46.338Z,4.60
2019-03-10T21:59:17.348Z,5.25
2019-03-10T22:01:47.999Z,5.37
2019-03-10T22:04:19.207Z,5.65
2019-03-10T22:06:49.665Z,4.55
2019-03-10T22:09:20.295Z,4.83
2019-03-10T22:11:53.283Z,4.72
2019-03-10T22:14:23.499Z,5.45
2019-03-10T22:16:54.017Z,5.58
2019-03-10T22:19:24.555Z,5.17
2019-03-10T22:21:55.073Z,5.10
2019-03-10T22:24:27.252Z,4.83
2019-03-10T22:26:58.496Z,4.85
2019-03-10T22:29:30.619Z,4.67
2019-03-10T22:32:01.905Z,4.30
2019-03-10T22:34:33.134Z,5.20
2019-03-10T22:37:03.822Z,4.83
2019-03-10T22:39:34.309Z,4.40
2019-03-10T22:42:04.940Z,4.55
2019-03-10T22:44:36.283Z,4.05
2019-03-10T22:47:06.916Z,4.83
2019-03-10T22:49:37.445Z,6.00
2019-03-10T22:52:08.091Z,6.95
2019-03-10T22:54:38.946Z,8.53
2019-03-10T22:57:09.822Z,10.18
2019-03-10T22:59:41.193Z,10.78
2019-03-10T23:02:13.884Z,11.75
2019-03-10T23:04:44.503Z,11.70
2019-03-10T23:07:15.234Z,10.93
2019-03-10T23:09:46.788Z,11.75
2019-03-10T23:12:18.600Z,12.13
2019-03-10T23:14:48.775Z,11.65
2019-03-10T23:17:19.759Z,11.50
2019-03-10T23:19:50.309Z,11.43
2019-03-10T23:22:21.166Z,11.75
2019-03-10T23:24:54.970Z,11.90
2019-03-10T23:27:25.421Z,12.90
2019-03-10T23:29:58.087Z,12.23
2019-03-10T23:32:29.169Z,12.47
2019-03-10T23:35:00.501Z,12.53
2019-03-10T23:37:32.725Z,12.63
2019-03-10T23:40:04.377Z,12.45
2019-03-10T23:42:34.912Z,11.97
2019-03-10T23:45:10.466Z,11.90
2019-03-10T23:47:40.885Z,13.18
2019-03-10T23:50:13.660Z,13.90
2019-03-10T23:52:44.392Z,12.37
2019-03-10T23:55:15.536Z,13.85
2019-03-10T23:57:45.677Z,13.35
